sensor_id;sensor_type;location;lat;lon;timestamp;P1;durP1;ratioP1;P2;durP2;ratioP2
4011;SDS011;2020;48.682;9.024;2024-03-02T00:02:23;5.20;;;4.80;;
4011;SDS011;2020;48.682;9.024;2024-03-02T00:04:48;5.60;;;4.87;;
4011;SDS011;2020;48.682;9.024;2024-03-02T00:07:14;7.27;;;6.27;;
4011;SDS011;2020;48.682;9.024;2024-03-02T00:09:39;7.00;;;5.90;;
4011;SDS011;2020;48.682;9.024;2024-03-02T00:12:05;5.40;;;4.90;;
4011;SDS011;2020;48.682;9.024;2024-03-02T00:14:30;6.03;;;5.70;;
4011;SDS011;2020;48.682;9.024;2024-03-02T00:16:57;5.23;;;4.77;;
4011;SDS011;2020;48.682;9.024;2024-03-02T00:19:22;6.70;;;5.60;;
4011;SDS011;2020;48.682;9.024;2024-03-02T00:21:48;6.07;;;5.57;;
4011;SDS011;2020;48.682;9.024;2024-03-02T00:27:08;5.87;;;4.70;;
4011;SDS011;2020;48.682;9.024;2024-03-02T00:29:37;6.33;;;5.63;;
4011;SDS011;2020;48.682;9.024;2024-03-02T00:32:05;7.07;;;5.50;;
4011;SDS011;2020;48.682;9.024;2024-03-02T00:34:38;5.60;;;4.83;;
4011;SDS011;2020;48.682;9.024;2024-03-02T00:37:04;6.60;;;5.00;;
4011;SDS011;2020;48.682;9.024;2024-03-02T00:39:30;8.17;;;5.53;;
4011;SDS011;2020;48.682;9.024;2024-03-02T00:41:55;5.60;;;5.07;;
4011;SDS011;2020;48.682;9.024;2024-03-02T00:44:20;7.83;;;6.43;;
4011;SDS011;2020;48.682;9.024;2024-03-02T00:46:51;7.67;;;5.90;;
4011;SDS011;2020;48.682;9.024;2024-03-02T00:49:24;8.70;;;6.60;;
4011;SDS011;2020;48.682;9.024;2024-03-02T00:51:54;7.20;;;5.60;;
4011;SDS011;2020;48.682;9.024;2024-03-02T00:54:20;6.43;;;5.40;;
4011;SDS011;2020;48.682;9.024;2024-03-02T00:56:48;7.23;;;5.50;;
4011;SDS011;2020;48.682;9.024;2024-03-02T00:59:14;7.77;;;6.10;;
4011;SDS011;2020;48.682;9.024;2024-03-02T01:01:39;6.83;;;5.23;;
4011;SDS011;2020;48.682;9.024;2024-03-02T01:04:05;7.30;;;6.00;;
4011;SDS011;2020;48.682;9.024;2024-03-02T01:06:30;7.93;;;6.67;;
4011;SDS011;2020;48.682;9.024;2024-03-02T01:08:56;11.17;;;7.43;;
4011;SDS011;2020;48.682;9.024;2024-03-02T01:11:21;9.50;;;6.97;;
4011;SDS011;2020;48.682;9.024;2024-03-02T01:13:49;12.70;;;7.67;;
4011;SDS011;2020;48.682;9.024;2024-03-02T01:16:14;11.97;;;6.77;;
4011;SDS011;2020;48.682;9.024;2024-03-02T01:18:43;10.27;;;6.80;;
4011;SDS011;2020;48.682;9.024;2024-03-02T01:21:08;11.27;;;8.10;;
4011;SDS011;2020;48.682;9.024;2024-03-02T01:23:34;11.60;;;8.17;;
4011;SDS011;2020;48.682;9.024;2024-03-02T01:25:59;9.53;;;8.07;;
4011;SDS011;2020;48.682;9.024;2024-03-02T01:28:24;8.67;;;6.90;;
4011;SDS011;2020;48.682;9.024;2024-03-02T01:30:50;10.80;;;7.47;;
4011;SDS011;2020;48.682;9.024;2024-03-02T01:33:16;9.30;;;6.30;;
4011;SDS011;2020;48.682;9.024;2024-03-02T01:35:42;10.70;;;8.20;;
4011;SDS011;2020;48.682;9.024;2024-03-02T01:38:08;10.57;;;7.23;;
4011;SDS011;2020;48.682;9.024;2024-03-02T01:40:34;13.60;;;8.07;;
4011;SDS011;2020;48.682;9.024;2024-03-02T01:42:59;10.67;;;7.70;;
4011;SDS011;2020;48.682;9.024;2024-03-02T01:45:25;14.67;;;7.73;;
4011;SDS011;2020;48.682;9.024;2024-03-02T01:47:50;11.10;;;7.60;;
4011;SDS011;2020;48.682;9.024;2024-03-02T01:50:15;8.40;;;6.80;;
4011;SDS011;2020;48.682;9.024;2024-03-02T01:52:49;10.97;;;6.87;;
4011;SDS011;2020;48.682;9.024;2024-03-02T01:55:14;12.63;;;8.27;;
4011;SDS011;2020;48.682;9.024;2024-03-02T01:57:39;9.40;;;8.20;;
4011;SDS011;2020;48.682;9.024;2024-03-02T02:00:05;8.83;;;6.27;;
4011;SDS011;2020;48.682;9.024;2024-03-02T02:02:31;10.13;;;6.90;;
4011;SDS011;2020;48.682;9.024;2024-03-02T02:04:56;13.37;;;7.73;;
4011;SDS011;2020;48.682;9.024;2024-03-02T02:07:21;7.70;;;6.43;;
4011;SDS011;2020;48.682;9.024;2024-03-02T02:09:46;13.90;;;7.50;;
4011;SDS011;2020;48.682;9.024;2024-03-02T02:12:12;12.07;;;8.13;;
4011;SDS011;2020;48.682;9.024;2024-03-02T02:14:37;11.00;;;7.17;;
4011;SDS011;2020;48.682;9.024;2024-03-02T02:17:04;11.00;;;7.10;;
4011;SDS011;2020;48.682;9.024;2024-03-02T02:19:29;9.30;;;7.33;;
4011;SDS011;2020;48.682;9.024;2024-03-02T02:21:55;8.97;;;6.70;;
4011;SDS011;2020;48.682;9.024;2024-03-02T02:24:20;10.80;;;8.00;;
4011;SDS011;2020;48.682;9.024;2024-03-02T02:26:45;9.67;;;7.17;;
4011;SDS011;2020;48.682;9.024;2024-03-02T02:29:11;7.37;;;5.47;;
4011;SDS011;2020;48.682;9.024;2024-03-02T02:31:39;15.43;;;8.00;;
4011;SDS011;2020;48.682;9.024;2024-03-02T02:34:05;9.90;;;7.77;;
4011;SDS011;2020;48.682;9.024;2024-03-02T02:36:31;11.67;;;7.60;;
4011;SDS011;2020;48.682;9.024;2024-03-02T02:38:57;12.53;;;7.73;;
4011;SDS011;2020;48.682;9.024;2024-03-02T02:41:28;10.17;;;6.90;;
4011;SDS011;2020;48.682;9.024;2024-03-02T02:43:54;11.70;;;7.30;;
4011;SDS011;2020;48.682;9.024;2024-03-02T02:46:19;10.60;;;6.60;;
4011;SDS011;2020;48.682;9.024;2024-03-02T02:48:45;10.70;;;7.73;;
4011;SDS011;2020;48.682;9.024;2024-03-02T02:51:10;11.17;;;8.40;;
4011;SDS011;2020;48.682;9.024;2024-03-02T02:53:35;9.87;;;7.83;;
4011;SDS011;2020;48.682;9.024;2024-03-02T02:56:00;9.10;;;7.73;;
4011;SDS011;2020;48.682;9.024;2024-03-02T02:58:26;11.17;;;7.90;;
4011;SDS011;2020;48.682;9.024;2024-03-02T03:00:51;7.20;;;6.20;;
4011;SDS011;2020;48.682;9.024;2024-03-02T03:03:17;10.57;;;7.10;;
4011;SDS011;2020;48.682;9.024;2024-03-02T03:05:42;8.13;;;6.47;;
4011;SDS011;2020;48.682;9.024;2024-03-02T03:08:07;11.03;;;5.87;;
4011;SDS011;2020;48.682;9.024;2024-03-02T03:10:32;12.20;;;9.00;;
4011;SDS011;2020;48.682;9.024;2024-03-02T03:12:58;9.77;;;7.30;;
4011;SDS011;2020;48.682;9.024;2024-03-02T03:15:23;11.60;;;6.93;;
4011;SDS011;2020;48.682;9.024;2024-03-02T03:17:48;12.23;;;7.30;;
4011;SDS011;2020;48.682;9.024;2024-03-02T03:20:14;6.33;;;5.70;;
4011;SDS011;2020;48.682;9.024;2024-03-02T03:22:40;9.90;;;7.40;;
4011;SDS011;2020;48.682;9.024;2024-03-02T03:25:05;8.63;;;6.90;;
4011;SDS011;2020;48.682;9.024;2024-03-02T03:27:33;6.67;;;5.83;;
4011;SDS011;2020;48.682;9.024;2024-03-02T03:29:58;7.53;;;5.67;;
4011;SDS011;2020;48.682;9.024;2024-03-02T03:32:23;7.20;;;6.20;;
4011;SDS011;2020;48.682;9.024;2024-03-02T03:34:49;15.93;;;7.67;;
4011;SDS011;2020;48.682;9.024;2024-03-02T03:37:15;11.87;;;7.40;;
4011;SDS011;2020;48.682;9.024;2024-03-02T03:39:40;10.30;;;6.83;;
4011;SDS011;2020;48.682;9.024;2024-03-02T03:42:05;12.57;;;7.37;;
4011;SDS011;2020;48.682;9.024;2024-03-02T03:44:31;9.90;;;6.80;;
4011;SDS011;2020;48.682;9.024;2024-03-02T03:46:56;9.20;;;5.93;;
4011;SDS011;2020;48.682;9.024;2024-03-02T03:49:22;9.30;;;6.50;;
4011;SDS011;2020;48.682;9.024;2024-03-02T03:51:47;8.30;;;6.47;;
4011;SDS011;2020;48.682;9.024;2024-03-02T03:54:12;9.27;;;6.40;;
4011;SDS011;2020;48.682;9.024;2024-03-02T03:56:38;5.90;;;5.30;;
4011;SDS011;2020;48.682;9.024;2024-03-02T03:59:03;9.67;;;6.63;;
4011;SDS011;2020;48.682;9.024;2024-03-02T04:01:29;8.07;;;6.13;;
4011;SDS011;2020;48.682;9.024;2024-03-02T04:03:55;10.07;;;7.30;;
4011;SDS011;2020;48.682;9.024;2024-03-02T04:06:20;7.70;;;7.00;;
4011;SDS011;2020;48.682;9.024;2024-03-02T04:08:45;11.20;;;6.83;;
4011;SDS011;2020;48.682;9.024;2024-03-02T04:11:11;7.43;;;6.30;;
4011;SDS011;2020;48.682;9.024;2024-03-02T04:13:36;9.00;;;6.10;;
4011;SDS011;2020;48.682;9.024;2024-03-02T04:16:01;6.97;;;6.30;;
4011;SDS011;2020;48.682;9.024;2024-03-02T04:18:28;7.67;;;6.00;;
4011;SDS011;2020;48.682;9.024;2024-03-02T04:20:54;8.70;;;6.10;;
4011;SDS011;2020;48.682;9.024;2024-03-02T04:23:19;8.57;;;5.67;;
4011;SDS011;2020;48.682;9.024;2024-03-02T04:25:44;9.70;;;6.90;;
4011;SDS011;2020;48.682;9.024;2024-03-02T04:28:09;8.53;;;5.73;;
4011;SDS011;2020;48.682;9.024;2024-03-02T04:30:35;10.50;;;6.37;;
4011;SDS011;2020;48.682;9.024;2024-03-02T04:33:00;7.63;;;6.13;;
4011;SDS011;2020;48.682;9.024;2024-03-02T04:35:27;7.87;;;5.67;;
4011;SDS011;2020;48.682;9.024;2024-03-02T04:37:52;7.00;;;5.63;;
4011;SDS011;2020;48.682;9.024;2024-03-02T04:40:18;7.80;;;5.90;;
4011;SDS011;2020;48.682;9.024;2024-03-02T04:42:43;9.27;;;5.77;;
4011;SDS011;2020;48.682;9.024;2024-03-02T04:45:08;7.60;;;5.47;;
4011;SDS011;2020;48.682;9.024;2024-03-02T04:47:34;7.83;;;6.07;;
4011;SDS011;2020;48.682;9.024;2024-03-02T04:49:59;5.77;;;5.23;;
4011;SDS011;2020;48.682;9.024;2024-03-02T04:52:25;5.93;;;4.80;;
4011;SDS011;2020;48.682;9.024;2024-03-02T04:54:50;8.80;;;6.00;;
4011;SDS011;2020;48.682;9.024;2024-03-02T04:57:34;8.73;;;6.30;;
4011;SDS011;2020;48.682;9.024;2024-03-02T04:59:59;6.63;;;5.30;;
4011;SDS011;2020;48.682;9.024;2024-03-02T05:02:25;10.50;;;6.53;;
4011;SDS011;2020;48.682;9.024;2024-03-02T05:04:50;6.40;;;5.10;;
4011;SDS011;2020;48.682;9.024;2024-03-02T05:07:15;7.30;;;5.67;;
4011;SDS011;2020;48.682;9.024;2024-03-02T05:09:41;6.73;;;5.20;;
4011;SDS011;2020;48.682;9.024;2024-03-02T05:12:07;6.73;;;5.70;;
4011;SDS011;2020;48.682;9.024;2024-03-02T05:14:41;11.03;;;6.53;;
4011;SDS011;2020;48.682;9.024;2024-03-02T05:17:06;8.03;;;6.20;;
4011;SDS011;2020;48.682;9.024;2024-03-02T05:19:31;8.03;;;6.37;;
4011;SDS011;2020;48.682;9.024;2024-03-02T05:21:57;7.70;;;5.83;;
4011;SDS011;2020;48.682;9.024;2024-03-02T05:24:22;4.97;;;4.47;;
4011;SDS011;2020;48.682;9.024;2024-03-02T05:26:47;6.60;;;5.10;;
4011;SDS011;2020;48.682;9.024;2024-03-02T05:29:12;5.03;;;4.50;;
4011;SDS011;2020;48.682;9.024;2024-03-02T05:31:38;10.63;;;5.27;;
4011;SDS011;2020;48.682;9.024;2024-03-02T05:34:03;6.00;;;5.50;;
4011;SDS011;2020;48.682;9.024;2024-03-02T05:36:30;6.47;;;5.77;;
4011;SDS011;2020;48.682;9.024;2024-03-02T05:38:55;7.83;;;5.87;;
4011;SDS011;2020;48.682;9.024;2024-03-02T05:41:20;8.67;;;5.00;;
4011;SDS011;2020;48.682;9.024;2024-03-02T05:43:46;8.87;;;6.37;;
4011;SDS011;2020;48.682;9.024;2024-03-02T05:46:11;7.50;;;6.07;;
4011;SDS011;2020;48.682;9.024;2024-03-02T05:48:36;9.87;;;5.67;;
4011;SDS011;2020;48.682;9.024;2024-03-02T05:51:02;4.87;;;4.37;;
4011;SDS011;2020;48.682;9.024;2024-03-02T05:53:28;8.73;;;6.20;;
4011;SDS011;2020;48.682;9.024;2024-03-02T05:55:53;9.70;;;5.87;;
4011;SDS011;2020;48.682;9.024;2024-03-02T05:58:20;7.57;;;6.17;;
4011;SDS011;2020;48.682;9.024;2024-03-02T06:00:49;8.23;;;5.50;;
4011;SDS011;2020;48.682;9.024;2024-03-02T06:03:14;5.33;;;4.83;;
4011;SDS011;2020;48.682;9.024;2024-03-02T06:05:39;5.73;;;5.20;;
4011;SDS011;2020;48.682;9.024;2024-03-02T06:08:05;10.40;;;5.80;;
4011;SDS011;2020;48.682;9.024;2024-03-02T06:10:31;8.53;;;6.03;;
4011;SDS011;2020;48.682;9.024;2024-03-02T06:12:56;6.83;;;5.63;;
4011;SDS011;2020;48.682;9.024;2024-03-02T06:15:23;7.77;;;5.77;;
4011;SDS011;2020;48.682;9.024;2024-03-02T06:17:49;6.70;;;5.50;;
4011;SDS011;2020;48.682;9.024;2024-03-02T06:20:14;8.00;;;5.07;;
4011;SDS011;2020;48.682;9.024;2024-03-02T06:22:39;10.93;;;8.17;;
4011;SDS011;2020;48.682;9.024;2024-03-02T06:25:04;8.03;;;5.87;;
4011;SDS011;2020;48.682;9.024;2024-03-02T06:27:30;9.30;;;6.00;;
4011;SDS011;2020;48.682;9.024;2024-03-02T06:29:55;14.13;;;6.87;;
4011;SDS011;2020;48.682;9.024;2024-03-02T06:32:20;6.37;;;5.47;;
4011;SDS011;2020;48.682;9.024;2024-03-02T06:34:46;10.03;;;7.10;;
4011;SDS011;2020;48.682;9.024;2024-03-02T06:37:11;9.80;;;6.53;;
4011;SDS011;2020;48.682;9.024;2024-03-02T06:39:36;9.60;;;5.87;;
4011;SDS011;2020;48.682;9.024;2024-03-02T06:42:01;10.13;;;6.83;;
4011;SDS011;2020;48.682;9.024;2024-03-02T06:44:27;12.00;;;7.20;;
4011;SDS011;2020;48.682;9.024;2024-03-02T06:46:52;7.40;;;4.73;;
4011;SDS011;2020;48.682;9.024;2024-03-02T06:49:17;10.30;;;6.93;;
4011;SDS011;2020;48.682;9.024;2024-03-02T06:51:43;8.13;;;6.07;;
4011;SDS011;2020;48.682;9.024;2024-03-02T06:54:08;10.37;;;6.87;;
4011;SDS011;2020;48.682;9.024;2024-03-02T06:56:34;9.00;;;6.10;;
4011;SDS011;2020;48.682;9.024;2024-03-02T06:58:59;7.67;;;6.07;;
4011;SDS011;2020;48.682;9.024;2024-03-02T07:01:24;6.80;;;6.03;;
4011;SDS011;2020;48.682;9.024;2024-03-02T07:03:51;7.47;;;6.70;;
4011;SDS011;2020;48.682;9.024;2024-03-02T07:06:16;9.90;;;7.10;;
4011;SDS011;2020;48.682;9.024;2024-03-02T07:08:41;11.50;;;6.50;;
4011;SDS011;2020;48.682;9.024;2024-03-02T07:11:07;11.50;;;7.63;;
4011;SDS011;2020;48.682;9.024;2024-03-02T07:13:32;12.10;;;7.30;;
4011;SDS011;2020;48.682;9.024;2024-03-02T07:15:57;7.70;;;4.80;;
4011;SDS011;2020;48.682;9.024;2024-03-02T07:18:29;11.60;;;6.80;;
4011;SDS011;2020;48.682;9.024;2024-03-02T07:20:55;7.63;;;6.70;;
4011;SDS011;2020;48.682;9.024;2024-03-02T07:23:23;10.70;;;6.43;;
4011;SDS011;2020;48.682;9.024;2024-03-02T07:25:52;10.13;;;6.43;;
4011;SDS011;2020;48.682;9.024;2024-03-02T07:28:19;8.50;;;6.77;;
4011;SDS011;2020;48.682;9.024;2024-03-02T07:30:45;11.50;;;6.83;;
4011;SDS011;2020;48.682;9.024;2024-03-02T07:33:10;8.47;;;5.07;;
4011;SDS011;2020;48.682;9.024;2024-03-02T07:35:35;7.53;;;5.67;;
4011;SDS011;2020;48.682;9.024;2024-03-02T07:38:01;8.40;;;6.27;;
4011;SDS011;2020;48.682;9.024;2024-03-02T07:40:26;7.30;;;6.33;;
4011;SDS011;2020;48.682;9.024;2024-03-02T07:42:52;8.20;;;6.60;;
4011;SDS011;2020;48.682;9.024;2024-03-02T07:45:17;8.10;;;6.20;;
4011;SDS011;2020;48.682;9.024;2024-03-02T07:47:42;8.57;;;7.67;;
4011;SDS011;2020;48.682;9.024;2024-03-02T07:50:07;10.90;;;7.90;;
4011;SDS011;2020;48.682;9.024;2024-03-02T07:52:34;9.00;;;6.40;;
4011;SDS011;2020;48.682;9.024;2024-03-02T07:54:59;6.33;;;5.50;;
4011;SDS011;2020;48.682;9.024;2024-03-02T07:57:24;6.23;;;5.50;;
4011;SDS011;2020;48.682;9.024;2024-03-02T07:59:50;7.77;;;6.07;;
4011;SDS011;2020;48.682;9.024;2024-03-02T08:02:15;9.73;;;7.77;;
4011;SDS011;2020;48.682;9.024;2024-03-02T08:04:40;14.13;;;8.73;;
4011;SDS011;2020;48.682;9.024;2024-03-02T08:07:06;13.33;;;8.93;;
4011;SDS011;2020;48.682;9.024;2024-03-02T08:09:31;7.37;;;6.63;;
4011;SDS011;2020;48.682;9.024;2024-03-02T08:11:57;8.00;;;5.80;;
4011;SDS011;2020;48.682;9.024;2024-03-02T08:14:23;6.50;;;5.90;;
4011;SDS011;2020;48.682;9.024;2024-03-02T08:16:48;6.00;;;5.50;;
4011;SDS011;2020;48.682;9.024;2024-03-02T08:19:14;5.50;;;5.03;;
4011;SDS011;2020;48.682;9.024;2024-03-02T08:21:39;6.27;;;5.67;;
4011;SDS011;2020;48.682;9.024;2024-03-02T08:24:05;7.40;;;5.60;;
4011;SDS011;2020;48.682;9.024;2024-03-02T08:26:30;7.60;;;5.20;;
4011;SDS011;2020;48.682;9.024;2024-03-02T08:28:57;6.37;;;5.30;;
4011;SDS011;2020;48.682;9.024;2024-03-02T08:31:22;6.43;;;4.80;;
4011;SDS011;2020;48.682;9.024;2024-03-02T08:33:48;7.93;;;5.53;;
4011;SDS011;2020;48.682;9.024;2024-03-02T08:36:13;7.07;;;4.80;;
4011;SDS011;2020;48.682;9.024;2024-03-02T08:38:38;4.40;;;4.07;;
4011;SDS011;2020;48.682;9.024;2024-03-02T08:41:04;6.23;;;5.63;;
4011;SDS011;2020;48.682;9.024;2024-03-02T08:43:29;5.67;;;4.70;;
4011;SDS011;2020;48.682;9.024;2024-03-02T08:45:55;4.10;;;3.70;;
4011;SDS011;2020;48.682;9.024;2024-03-02T08:48:20;4.70;;;4.30;;
4011;SDS011;2020;48.682;9.024;2024-03-02T08:50:46;3.33;;;3.07;;
4011;SDS011;2020;48.682;9.024;2024-03-02T08:53:11;5.23;;;4.73;;
4011;SDS011;2020;48.682;9.024;2024-03-02T08:55:37;5.07;;;4.40;;
4011;SDS011;2020;48.682;9.024;2024-03-02T08:58:02;4.17;;;3.53;;
4011;SDS011;2020;48.682;9.024;2024-03-02T09:00:27;2.97;;;2.77;;
4011;SDS011;2020;48.682;9.024;2024-03-02T09:02:53;4.00;;;3.70;;
4011;SDS011;2020;48.682;9.024;2024-03-02T09:05:18;3.40;;;3.17;;
4011;SDS011;2020;48.682;9.024;2024-03-02T09:07:44;3.23;;;3.03;;
4011;SDS011;2020;48.682;9.024;2024-03-02T09:10:09;6.47;;;3.50;;
4011;SDS011;2020;48.682;9.024;2024-03-02T09:12:35;4.30;;;4.00;;
4011;SDS011;2020;48.682;9.024;2024-03-02T09:15:03;4.57;;;3.83;;
4011;SDS011;2020;48.682;9.024;2024-03-02T09:17:29;4.07;;;3.77;;
4011;SDS011;2020;48.682;9.024;2024-03-02T09:19:55;3.57;;;3.23;;
4011;SDS011;2020;48.682;9.024;2024-03-02T09:22:20;4.47;;;4.07;;
4011;SDS011;2020;48.682;9.024;2024-03-02T09:24:46;5.27;;;4.53;;
4011;SDS011;2020;48.682;9.024;2024-03-02T09:27:11;4.20;;;3.80;;
4011;SDS011;2020;48.682;9.024;2024-03-02T09:29:37;4.37;;;4.10;;
4011;SDS011;2020;48.682;9.024;2024-03-02T09:32:02;4.17;;;3.77;;
4011;SDS011;2020;48.682;9.024;2024-03-02T09:34:28;3.83;;;3.60;;
4011;SDS011;2020;48.682;9.024;2024-03-02T09:36:53;3.17;;;3.00;;
4011;SDS011;2020;48.682;9.024;2024-03-02T09:39:18;3.37;;;3.17;;
4011;SDS011;2020;48.682;9.024;2024-03-02T09:41:43;3.57;;;3.27;;
4011;SDS011;2020;48.682;9.024;2024-03-02T09:44:09;3.30;;;2.90;;
4011;SDS011;2020;48.682;9.024;2024-03-02T09:46:35;2.87;;;2.70;;
4011;SDS011;2020;48.682;9.024;2024-03-02T09:49:01;2.47;;;2.37;;
4011;SDS011;2020;48.682;9.024;2024-03-02T09:51:27;3.50;;;3.20;;
4011;SDS011;2020;48.682;9.024;2024-03-02T09:53:53;2.97;;;2.87;;
4011;SDS011;2020;48.682;9.024;2024-03-02T09:56:20;3.40;;;2.77;;
4011;SDS011;2020;48.682;9.024;2024-03-02T09:58:46;2.87;;;2.67;;
4011;SDS011;2020;48.682;9.024;2024-03-02T10:01:12;2.97;;;2.70;;
